Time;durP1;ratioP1;P1;durP2;ratioP2;P2;SDS_P1;SDS_P2;PMS_P1;PMS_P2;Temp;Humidity;BMP_temperature;BMP_pressure;BME280_temperature;BME280_humidity;BME280_pressure;Samples;Min_cycle;Max_cycle;Signal;HPM_P1;HPM_P2
2022/02/13 00:02:27;;;;;;;32.60;15.50;;;;;;;-2.33;71.35;101484.15;130401;1267;108061;-81
2022/02/13 00:05:33;;;;;;;37.30;18.40;;;;;;;-2.34;71.55;101482.61;130301;1270;107663;-80
2022/02/13 00:08:38;;;;;;;43.30;19.80;;;;;;;-2.33;71.51;101481.18;130422;1269;107822;-82
2022/02/13 00:11:43;;;;;;;69.10;27.10;;;;;;;-2.34;71.49;101481.41;130371;1268;106264;-82
2022/02/13 00:14:50;;;;;;;76.50;28.20;;;;;;;-2.35;71.60;101480.20;130345;1269;108695;-81
2022/02/13 00:17:55;;;;;;;76.50;36.00;;;;;;;-2.34;71.42;101477.23;130352;1268;108832;-80
2022/02/13 00:21:01;;;;;;;73.20;30.80;;;;;;;-2.35;71.56;101479.51;130390;1268;108725;-82
2022/02/13 00:24:07;;;;;;;110.70;36.60;;;;;;;-2.38;71.53;101471.71;130383;1268;107628;-82
2022/02/13 00:27:13;;;;;;;153.00;43.20;;;;;;;-2.39;71.57;101468.98;130369;1268;107652;-81
2022/02/13 00:30:20;;;;;;;88.70;26.30;;;;;;;-2.36;71.72;101469.61;130430;1268;108644;-83
2022/02/13 00:33:26;;;;;;;144.90;43.30;;;;;;;-2.32;71.71;101460.79;130382;1268;108692;-82
2022/02/13 00:36:32;;;;;;;100.30;31.20;;;;;;;-2.28;71.64;101457.88;130381;1268;108735;-81
2022/02/13 00:39:37;;;;;;;118.30;39.80;;;;;;;-2.21;71.92;101449.85;130381;1268;107898;-81
2022/02/13 00:42:43;;;;;;;70.40;27.20;;;;;;;-2.12;71.66;101445.77;130424;1268;107613;-81
2022/02/13 00:45:48;;;;;;;111.60;35.90;;;;;;;-2.03;71.56;101443.05;130399;1268;108930;-79
2022/02/13 00:48:55;;;;;;;75.80;26.00;;;;;;;-1.91;71.73;101439.62;130274;1269;107680;-80
2022/02/13 00:52:00;;;;;;;69.20;25.10;;;;;;;-1.87;71.53;101430.41;130321;1268;108711;-80
2022/02/13 00:55:08;;;;;;;84.20;32.10;;;;;;;-1.85;71.44;101423.38;130359;1268;108816;-81
2022/02/13 00:58:13;;;;;;;50.20;20.20;;;;;;;-1.82;71.75;101419.46;130335;1268;108869;-82
2022/02/13 01:01:19;;;;;;;32.20;14.80;;;;;;;-1.84;71.51;101410.42;130380;1268;106837;-81
2022/02/13 01:04:25;;;;;;;29.70;13.40;;;;;;;-1.88;71.30;101406.55;130381;1268;108653;-82
2022/02/13 01:07:30;;;;;;;32.50;15.80;;;;;;;-1.91;71.44;101395.11;130352;1268;107738;-81
2022/02/13 01:10:35;;;;;;;36.10;15.80;;;;;;;-1.93;71.59;101386.45;130377;1268;105630;-82
2022/02/13 01:13:42;;;;;;;48.80;19.60;;;;;;;-1.97;71.69;101384.48;130443;1270;108699;-84
2022/02/13 01:16:48;;;;;;;31.10;13.60;;;;;;;-1.99;71.48;101378.77;130614;1268;108779;-85
2022/02/13 01:19:54;;;;;;;37.90;16.60;;;;;;;-2.00;71.68;101370.29;130457;1268;109705;-85
2022/02/13 01:22:59;;;;;;;34.80;14.60;;;;;;;-2.02;71.51;101363.70;130445;1270;108960;-85
2022/02/13 01:26:04;;;;;;;31.90;14.80;;;;;;;-2.04;71.67;101357.15;130569;1270;107771;-85
2022/02/13 01:29:10;;;;;;;29.00;13.80;;;;;;;-2.07;71.66;101350.25;130531;1270;108778;-85
2022/02/13 01:32:15;;;;;;;29.50;13.50;;;;;;;-2.09;71.57;101346.84;130560;1268;107769;-86
2022/02/13 01:35:21;;;;;;;26.10;12.10;;;;;;;-2.12;71.40;101341.88;130597;1268;108814;-86
2022/02/13 01:38:27;;;;;;;24.30;12.80;;;;;;;-2.14;71.78;101335.31;130937;1269;106735;-85
2022/02/13 01:41:32;;;;;;;23.20;11.50;;;;;;;-2.16;71.71;101329.09;131836;1268;108862;-85
2022/02/13 01:44:38;;;;;;;28.20;12.90;;;;;;;-2.15;71.78;101321.39;132369;1268;107804;-85
2022/02/13 01:47:43;;;;;;;27.60;12.30;;;;;;;-2.18;71.75;101312.77;132441;1270;107763;-85
2022/02/13 01:50:52;;;;;;;22.90;11.00;;;;;;;-2.14;71.72;101307.77;132400;1268;108532;-85
2022/02/13 01:53:58;;;;;;;33.20;14.90;;;;;;;-2.05;71.84;101305.92;132388;1269;106485;-85
2022/02/13 01:57:04;;;;;;;25.60;12.40;;;;;;;-1.91;71.94;101298.88;130784;1267;107975;-85
2022/02/13 02:00:11;;;;;;;25.80;13.10;;;;;;;-1.78;71.62;101292.54;131125;1270;107722;-85
2022/02/13 02:03:20;;;;;;;24.00;10.80;;;;;;;-1.73;71.61;101296.20;131166;1268;107812;-84
2022/02/13 02:06:26;;;;;;;21.50;9.80;;;;;;;-1.70;71.81;101293.48;130372;1270;108806;-86
2022/02/13 02:09:32;;;;;;;21.30;10.00;;;;;;;-1.67;71.54;101293.58;130445;1269;108759;-84
2022/02/13 02:12:39;;;;;;;19.80;9.40;;;;;;;-1.65;71.34;101287.05;130464;1268;107030;-84
2022/02/13 02:15:44;;;;;;;21.40;10.20;;;;;;;-1.66;71.48;101284.31;130412;1270;108680;-86
2022/02/13 02:18:50;;;;;;;20.90;10.00;;;;;;;-1.72;71.27;101285.52;130434;1269;108799;-86
2022/02/13 02:21:56;;;;;;;20.50;9.00;;;;;;;-1.75;71.46;101278.29;130429;1268;108762;-83
2022/02/13 02:25:02;;;;;;;20.30;9.80;;;;;;;-1.81;71.62;101280.22;130400;1268;108918;-84
2022/02/13 02:28:07;;;;;;;19.40;9.90;;;;;;;-1.83;71.57;101278.02;130425;1268;108914;-81
2022/02/13 02:31:13;;;;;;;18.60;9.20;;;;;;;-1.84;71.49;101278.23;130393;1270;108728;-83
2022/02/13 02:34:19;;;;;;;19.90;10.30;;;;;;;-1.87;71.53;101269.60;130399;1268;108624;-83
2022/02/13 02:37:25;;;;;;;18.80;9.70;;;;;;;-1.89;71.88;101266.34;130392;1268;108492;-84
2022/02/13 02:40:31;;;;;;;18.90;9.10;;;;;;;-1.91;71.66;101264.86;130400;1270;109073;-81
2022/02/13 02:43:36;;;;;;;19.10;9.00;;;;;;;-1.93;71.56;101265.27;130392;1270;108618;-82
2022/02/13 02:46:41;;;;;;;23.00;10.30;;;;;;;-1.94;71.66;101266.52;130433;1268;108933;-83
2022/02/13 02:49:47;;;;;;;18.60;8.70;;;;;;;-1.96;71.69;101262.05;130434;1268;108491;-85
2022/02/13 02:52:52;;;;;;;16.70;8.60;;;;;;;-1.97;71.48;101263.11;130524;1268;108876;-86
2022/02/13 02:55:58;;;;;;;20.50;9.00;;;;;;;-2.01;71.72;101259.58;130518;1268;106610;-85
2022/02/13 02:59:04;;;;;;;18.40;9.10;;;;;;;-2.02;71.47;101261.02;130329;1268;108762;-85
2022/02/13 03:02:10;;;;;;;18.70;8.80;;;;;;;-2.00;71.86;101258.31;130441;1269;108646;-84
2022/02/13 03:05:15;;;;;;;20.10;8.70;;;;;;;-1.92;71.51;101252.69;130485;1268;108834;-84
2022/02/13 03:08:22;;;;;;;16.20;8.00;;;;;;;-1.82;71.58;101250.97;130443;1268;108657;-84
2022/02/13 03:11:28;;;;;;;20.80;9.30;;;;;;;-1.73;71.46;101244.76;130436;1268;108768;-85
2022/02/13 03:14:34;;;;;;;20.80;9.30;;;;;;;-1.68;71.45;101241.07;130413;1268;108610;-84
2022/02/13 03:17:39;;;;;;;18.30;9.30;;;;;;;-1.66;71.47;101234.23;130442;1268;108761;-79
2022/02/13 03:20:48;;;;;;;19.20;9.40;;;;;;;-1.64;71.36;101228.23;130341;1268;108770;-79
2022/02/13 03:23:54;;;;;;;21.90;9.50;;;;;;;-1.62;71.30;101226.77;130327;1268;108611;-79
2022/02/13 03:26:59;;;;;;;22.00;9.60;;;;;;;-1.63;71.23;101224.53;130317;1268;108767;-81
2022/02/13 03:30:06;;;;;;;19.60;9.40;;;;;;;-1.70;71.19;101223.35;130428;1268;108856;-79
2022/02/13 03:33:12;;;;;;;19.30;9.30;;;;;;;-1.75;71.58;101222.33;131002;1267;109416;-84
2022/02/13 03:36:19;;;;;;;21.40;10.10;;;;;;;-1.80;71.25;101220.04;131852;1268;108027;-83
2022/02/13 03:39:28;;;;;;;20.40;9.60;;;;;;;-1.84;71.38;101222.26;131327;1268;107693;-81
2022/02/13 03:42:33;;;;;;;19.10;10.10;;;;;;;-1.86;71.16;101223.70;130426;1268;108739;-81
2022/02/13 03:45:39;;;;;;;21.10;10.20;;;;;;;-1.88;71.61;101215.94;130437;1268;108743;-81
2022/02/13 03:48:44;;;;;;;17.80;9.50;;;;;;;-1.90;71.25;101210.77;130418;1268;108758;-82
2022/02/13 03:51:50;;;;;;;19.30;10.30;;;;;;;-1.94;71.47;101208.64;130395;1268;108630;-81
2022/02/13 03:54:59;;;;;;;23.90;10.70;;;;;;;-1.97;71.49;101204.36;130509;1268;108603;-82
2022/02/13 03:58:05;;;;;;;21.10;10.00;;;;;;;-2.02;71.32;101201.89;130838;1268;106809;-79
2022/02/13 04:01:10;;;;;;;19.30;9.40;;;;;;;-2.04;71.46;101196.41;130338;1268;108708;-79
2022/02/13 04:04:15;;;;;;;24.00;11.20;;;;;;;-2.08;71.37;101193.55;130442;1268;108683;-81
2022/02/13 04:07:21;;;;;;;22.40;10.20;;;;;;;-2.10;71.40;101189.62;130412;1269;107734;-80
2022/02/13 04:10:26;;;;;;;22.40;10.50;;;;;;;-2.13;71.66;101184.81;130492;1268;108942;-81
2022/02/13 04:13:32;;;;;;;25.10;11.90;;;;;;;-2.14;71.50;101181.91;130392;1268;108447;-81
2022/02/13 04:16:37;;;;;;;26.10;12.00;;;;;;;-2.18;71.53;101180.28;130394;1268;107545;-80
2022/02/13 04:19:43;;;;;;;26.30;12.20;;;;;;;-2.20;71.52;101176.68;130407;1268;108737;-81
2022/02/13 04:22:48;;;;;;;25.00;11.40;;;;;;;-2.17;71.55;101170.48;130418;1268;107625;-79
2022/02/13 04:25:54;;;;;;;27.60;12.60;;;;;;;-2.09;71.72;101168.30;130391;1268;106849;-80
2022/02/13 04:28:59;;;;;;;29.60;13.30;;;;;;;-1.98;71.56;101160.27;130406;1268;108785;-82
2022/02/13 04:32:06;;;;;;;31.00;13.40;;;;;;;-1.86;71.52;101152.23;130417;1268;107807;-81
2022/02/13 04:35:12;;;;;;;35.10;15.40;;;;;;;-1.80;71.52;101147.98;130406;1268;108686;-80
2022/02/13 04:38:17;;;;;;;31.10;14.30;;;;;;;-1.75;71.35;101148.36;130339;1268;106505;-80
2022/02/13 04:41:23;;;;;;;25.70;13.50;;;;;;;-1.73;71.22;101147.23;130288;1268;108835;-79
2022/02/13 04:44:28;;;;;;;42.50;21.70;;;;;;;-1.74;71.39;101144.31;130342;1268;108589;-79
2022/02/13 04:47:33;;;;;;;65.60;33.70;;;;;;;-1.80;71.20;101144.86;130263;1268;108804;-81
2022/02/13 04:50:39;;;;;;;38.50;20.60;;;;;;;-1.85;71.38;101141.20;130397;1268;108701;-80
2022/02/13 04:53:44;;;;;;;29.20;14.50;;;;;;;-1.85;71.44;101137.55;130420;1268;107892;-81
2022/02/13 04:56:51;;;;;;;24.90;13.10;;;;;;;-1.87;71.32;101137.77;130365;1268;109137;-80
2022/02/13 04:59:56;;;;;;;28.20;12.20;;;;;;;-1.91;71.33;101134.08;130413;1268;108666;-81
2022/02/13 05:03:02;;;;;;;24.60;12.80;;;;;;;-1.93;71.52;101129.78;130370;1268;108802;-82
2022/02/13 05:06:08;;;;;;;30.40;13.60;;;;;;;-1.95;71.34;101128.64;130383;1268;108500;-80
2022/02/13 05:09:13;;;;;;;31.70;13.20;;;;;;;-1.97;71.57;101127.48;130341;1268;108607;-80
2022/02/13 05:12:18;;;;;;;25.40;12.60;;;;;;;-1.98;71.12;101123.84;130353;1268;108816;-80
2022/02/13 05:15:24;;;;;;;47.10;17.90;;;;;;;-1.99;71.43;101126.48;130437;1268;108784;-80
2022/02/13 05:18:29;;;;;;;45.70;18.20;;;;;;;-2.02;71.44;101122.03;130303;1268;108741;-80
2022/02/13 05:21:35;;;;;;;50.40;18.10;;;;;;;-2.05;71.37;101119.17;130299;1268;108848;-80
2022/02/13 05:24:42;;;;;;;50.00;18.60;;;;;;;-2.07;71.26;101119.27;130387;1268;108753;-82
2022/02/13 05:27:48;;;;;;;47.50;18.00;;;;;;;-2.12;71.29;101119.27;130341;1268;108689;-81
2022/02/13 05:30:53;;;;;;;55.90;19.80;;;;;;;-2.15;71.45;101120.56;130333;1268;108748;-81
2022/02/13 05:33:59;;;;;;;72.60;23.00;;;;;;;-2.15;71.41;101118.48;130600;1268;108721;-81
2022/02/13 05:37:06;;;;;;;82.20;23.20;;;;;;;-2.18;71.41;101118.94;131988;1268;107492;-82
2022/02/13 05:40:12;;;;;;;74.70;21.60;;;;;;;-2.21;71.31;101119.04;130505;1268;108967;-79
2022/02/13 05:43:18;;;;;;;78.20;20.80;;;;;;;-2.22;71.32;101110.69;131797;1268;107513;-80
2022/02/13 05:46:25;;;;;;;63.50;19.80;;;;;;;-2.18;71.63;101105.66;130284;1268;108671;-82
2022/02/13 05:49:30;;;;;;;74.80;20.80;;;;;;;-2.11;71.38;101100.21;130535;1268;108941;-80
2022/02/13 05:52:36;;;;;;;63.30;20.00;;;;;;;-2.07;71.34;101098.33;130492;1268;108631;-80
2022/02/13 05:55:41;;;;;;;64.90;20.50;;;;;;;-2.01;71.33;101097.77;130350;1268;108820;-80
2022/02/13 05:58:47;;;;;;;66.70;20.20;;;;;;;-1.98;71.42;101097.34;130508;1268;108789;-79
2022/02/13 06:01:53;;;;;;;46.10;17.00;;;;;;;-1.94;71.37;101096.69;130349;1268;108504;-78
2022/02/13 06:04:59;;;;;;;67.30;21.80;;;;;;;-1.93;71.35;101101.18;130346;1268;108531;-79
2022/02/13 06:08:05;;;;;;;52.00;19.50;;;;;;;-1.91;71.15;101102.70;130317;1268;108665;-78
2022/02/13 06:11:12;;;;;;;67.80;22.40;;;;;;;-1.93;71.39;101095.95;130278;1268;108777;-78
2022/02/13 06:14:17;;;;;;;52.00;20.10;;;;;;;-1.95;71.28;101096.38;130086;1269;108715;-78
2022/02/13 06:17:23;;;;;;;49.90;19.00;;;;;;;-1.96;71.17;101090.81;130167;1269;108584;-79
2022/02/13 06:20:28;;;;;;;50.10;19.30;;;;;;;-1.98;71.25;101089.30;130108;1269;108718;-78
2022/02/13 06:23:34;;;;;;;41.50;17.50;;;;;;;-2.01;71.17;101090.45;130193;1270;108807;-82
2022/02/13 06:26:39;;;;;;;38.70;16.00;;;;;;;-2.03;71.24;101084.76;130074;1270;108690;-77
2022/02/13 06:29:45;;;;;;;41.10;15.90;;;;;;;-2.01;71.30;101081.55;130418;1269;108803;-80
2022/02/13 06:32:52;;;;;;;39.50;16.60;;;;;;;-2.00;71.20;101079.08;130751;1269;107936;-79
2022/02/13 06:35:57;;;;;;;41.30;16.90;;;;;;;-2.04;71.31;101079.75;130562;1269;108744;-81
2022/02/13 06:39:03;;;;;;;39.40;18.10;;;;;;;-2.05;71.52;101072.63;130047;1269;109701;-81
2022/02/13 06:42:09;;;;;;;37.80;17.20;;;;;;;-2.02;71.37;101070.96;130233;1269;109303;-84
2022/02/13 06:45:14;;;;;;;78.90;40.20;;;;;;;-2.00;71.46;101067.58;130067;1269;108654;-84
2022/02/13 06:48:20;;;;;;;56.80;30.30;;;;;;;-1.97;71.59;101063.47;130473;1269;108676;-83
2022/02/13 06:51:25;;;;;;;47.70;25.90;;;;;;;-1.97;71.42;101062.41;130175;1270;108689;-83
2022/02/13 06:54:30;;;;;;;43.70;22.60;;;;;;;-1.94;71.67;101059.38;130084;1270;108717;-80
2022/02/13 06:57:42;;;;;;;52.00;25.20;;;;;;;-1.90;71.51;101054.52;130093;1269;107471;-83
2022/02/13 07:00:48;;;;;;;41.10;18.70;;;;;;;-1.84;71.58;101047.70;130355;1269;108775;-81
2022/02/13 07:03:53;;;;;;;34.20;14.90;;;;;;;-1.77;71.65;101043.42;130401;1270;109143;-81
2022/02/13 07:07:00;;;;;;;26.20;12.60;;;;;;;-1.66;71.67;101035.20;130462;1269;108686;-82
2022/02/13 07:10:07;;;;;;;28.50;13.50;;;;;;;-1.54;71.50;101031.92;130243;1269;108951;-78
2022/02/13 07:13:13;;;;;;;29.00;13.70;;;;;;;-1.36;71.46;101033.89;130412;1268;108882;-78
2022/02/13 07:16:19;;;;;;;25.60;11.60;;;;;;;-1.17;71.44;101033.52;130574;1268;108942;-81
2022/02/13 07:19:26;;;;;;;31.90;14.90;;;;;;;-1.02;71.49;101026.64;130758;1268;107355;-79
2022/02/13 07:22:35;;;;;;;35.70;16.30;;;;;;;-0.87;71.57;101021.69;130495;1268;107727;-79
2022/02/13 07:25:41;;;;;;;25.50;12.70;;;;;;;-0.75;71.44;101017.58;130412;1268;106858;-76
2022/02/13 07:29:02;;;;;;;25.60;13.30;;;;;;;-0.67;71.36;101016.20;130669;1268;107709;-79
2022/02/13 07:32:09;;;;;;;23.00;13.10;;;;;;;-0.61;71.32;101015.06;130306;1268;108105;-85
2022/02/13 07:35:15;;;;;;;25.00;13.00;;;;;;;-0.56;71.18;101011.55;130468;1268;107705;-77
2022/02/13 07:38:21;;;;;;;22.80;12.20;;;;;;;-0.51;71.11;101013.45;130356;1268;108549;-80
2022/02/13 07:41:27;;;;;;;24.80;12.60;;;;;;;-0.45;71.11;101013.02;130317;1268;107749;-82
2022/02/13 07:44:33;;;;;;;24.30;13.10;;;;;;;-0.39;71.15;101013.65;130175;1268;107764;-82
2022/02/13 07:47:40;;;;;;;25.40;13.30;;;;;;;-0.34;71.11;101007.14;130512;1268;107656;-82
2022/02/13 07:50:45;;;;;;;23.00;12.50;;;;;;;-0.28;71.03;101001.98;130249;1268;108795;-81
2022/02/13 07:53:51;;;;;;;24.10;12.90;;;;;;;-0.22;71.11;101003.80;130505;1268;107654;-82
2022/02/13 07:56:57;;;;;;;23.30;12.90;;;;;;;-0.15;71.00;101002.11;130546;1268;107679;-78
2022/02/13 08:00:03;;;;;;;22.50;12.80;;;;;;;-0.08;70.84;101003.21;130756;1267;107692;-78
2022/02/13 08:03:17;;;;;;;21.00;11.80;;;;;;;0.00;71.06;100996.04;130360;1268;108766;-77
2022/02/13 08:06:23;;;;;;;59.40;24.20;;;;;;;0.09;70.90;100997.63;130571;1268;106736;-79
2022/02/13 08:09:29;;;;;;;72.50;29.20;;;;;;;0.16;70.92;100992.92;130626;1268;106722;-78
2022/02/13 08:12:34;;;;;;;48.10;21.10;;;;;;;0.24;70.84;100985.20;131279;1268;108424;-77
2022/02/13 08:15:40;;;;;;;39.00;18.40;;;;;;;0.33;70.69;100973.95;130706;1268;107679;-78
2022/02/13 08:18:45;;;;;;;31.70;14.90;;;;;;;0.42;70.66;100972.15;130337;1268;107656;-79
2022/02/13 08:21:51;;;;;;;54.40;22.40;;;;;;;0.50;70.60;100973.52;130384;1268;105559;-83
2022/02/13 08:24:56;;;;;;;30.60;16.00;;;;;;;0.58;70.47;100975.25;130443;1268;107696;-82
2022/02/13 08:28:02;;;;;;;32.80;16.80;;;;;;;0.67;70.51;100972.02;130464;1267;107537;-80
2022/02/13 08:31:08;;;;;;;24.50;13.10;;;;;;;0.75;70.37;100968.35;130411;1268;107647;-80
2022/02/13 08:34:13;;;;;;;45.50;25.10;;;;;;;0.83;70.10;100960.97;130361;1268;107761;-77
2022/02/13 08:37:20;;;;;;;28.20;14.00;;;;;;;0.90;70.06;100961.46;130272;1268;108891;-75
2022/02/13 08:40:25;;;;;;;24.50;12.70;;;;;;;0.98;70.19;100953.02;130332;1268;108524;-74
2022/02/13 08:43:31;;;;;;;23.50;13.10;;;;;;;1.07;70.23;100954.00;130332;1268;107789;-76
2022/02/13 08:46:37;;;;;;;34.10;17.00;;;;;;;1.15;70.15;100952.36;130260;1268;107736;-78
2022/02/13 08:49:42;;;;;;;83.70;36.60;;;;;;;1.25;69.88;100954.36;130611;1268;107760;-76
2022/02/13 08:52:48;;;;;;;41.30;19.10;;;;;;;1.32;69.91;100949.46;130362;1268;108679;-77
2022/02/13 08:55:53;;;;;;;50.30;22.90;;;;;;;1.41;69.69;100952.50;130416;1268;107807;-75
2022/02/13 08:58:59;;;;;;;27.70;14.30;;;;;;;1.49;69.66;100945.44;130458;1268;108769;-79
2022/02/13 09:02:05;;;;;;;34.90;17.40;;;;;;;1.57;69.41;100943.08;130404;1268;107690;-81
2022/02/13 09:05:11;;;;;;;38.50;20.40;;;;;;;1.65;69.22;100942.53;130449;1268;107680;-78
2022/02/13 09:08:16;;;;;;;24.10;13.30;;;;;;;1.73;69.31;100943.85;130237;1268;108726;-78
2022/02/13 09:11:22;;;;;;;24.10;12.90;;;;;;;1.79;68.74;100944.94;130394;1268;107446;-79
2022/02/13 09:14:27;;;;;;;20.80;11.60;;;;;;;1.85;69.14;100938.48;130294;1268;107703;-77
2022/02/13 09:17:33;;;;;;;21.10;11.70;;;;;;;1.92;68.79;100941.45;131677;1266;107694;-76
2022/02/13 09:20:44;;;;;;;20.30;11.60;;;;;;;1.99;68.70;100938.85;130837;1267;108166;-79
2022/02/13 09:23:49;;;;;;;23.80;12.40;;;;;;;2.05;68.68;100939.20;130443;1267;109000;-82
2022/02/13 09:26:55;;;;;;;20.40;11.70;;;;;;;2.11;68.39;100936.42;130694;1268;108923;-78
2022/02/13 09:30:02;;;;;;;22.40;11.90;;;;;;;2.19;68.59;100926.70;130394;1268;107687;-83
2022/02/13 09:33:08;;;;;;;21.30;12.20;;;;;;;2.27;68.72;100922.73;130570;1268;107769;-78
2022/02/13 09:36:19;;;;;;;21.60;11.80;;;;;;;2.34;68.35;100916.21;130480;1268;107761;-80
2022/02/13 09:39:25;;;;;;;21.30;13.60;;;;;;;2.41;68.24;100912.88;130384;1268;107801;-82
2022/02/13 09:42:32;;;;;;;25.40;14.20;;;;;;;2.42;67.98;100910.88;130671;1268;107649;-76
2022/02/13 09:45:44;;;;;;;22.50;12.60;;;;;;;2.41;68.05;100907.60;130540;1268;107646;-77
2022/02/13 09:48:53;;;;;;;20.60;12.80;;;;;;;2.42;68.09;100905.12;130839;1267;107563;-75
2022/02/13 09:52:01;;;;;;;21.30;12.50;;;;;;;2.40;67.96;100902.06;130921;1267;107507;-79
2022/02/13 09:55:08;;;;;;;23.60;12.20;;;;;;;2.38;67.73;100897.05;131527;1267;107578;-80
2022/02/13 09:58:14;;;;;;;22.00;12.20;;;;;;;2.37;68.03;100897.83;130953;1268;107692;-77
2022/02/13 10:01:20;;;;;;;22.10;13.10;;;;;;;2.37;68.04;100894.85;130368;1267;107733;-77
2022/02/13 10:04:43;;;;;;;20.70;12.40;;;;;;;2.41;67.99;100885.86;130461;1267;107706;-77
2022/02/13 10:07:53;;;;;;;20.50;13.20;;;;;;;2.49;67.72;100874.86;130492;1266;107690;-78
2022/02/13 10:11:17;;;;;;;24.20;13.40;;;;;;;2.59;68.13;100875.20;130376;1267;108559;-75
2022/02/13 10:14:22;;;;;;;23.50;13.50;;;;;;;2.71;67.75;100874.84;130597;1267;108658;-76
2022/02/13 10:17:28;;;;;;;20.20;12.50;;;;;;;2.83;67.73;100867.47;130420;1268;107746;-78
2022/02/13 10:20:35;;;;;;;21.00;13.10;;;;;;;2.93;67.64;100853.02;130409;1268;107754;-77
2022/02/13 10:23:40;;;;;;;21.30;12.70;;;;;;;3.02;67.23;100854.63;130418;1268;107712;-80
2022/02/13 10:26:48;;;;;;;22.70;12.60;;;;;;;3.09;67.59;100851.70;130743;1268;247517;-77
2022/02/13 10:29:57;;;;;;;20.20;12.20;;;;;;;3.18;67.55;100850.68;130528;1268;107759;-78
2022/02/13 10:33:16;;;;;;;22.90;12.50;;;;;;;3.23;67.46;100845.29;130724;1268;108801;-75
2022/02/13 10:36:21;;;;;;;21.20;12.40;;;;;;;3.26;67.33;100836.52;130734;1267;107595;-77
2022/02/13 10:39:28;;;;;;;20.90;12.30;;;;;;;3.25;67.41;100828.14;130688;1268;107833;-77
2022/02/13 10:42:33;;;;;;;21.90;12.80;;;;;;;3.24;67.06;100823.12;130334;1268;108704;-76
2022/02/13 10:45:40;;;;;;;32.60;16.80;;;;;;;3.22;66.89;100818.08;130281;1268;108960;-77
2022/02/13 10:48:46;;;;;;;74.50;36.00;;;;;;;3.25;67.19;100818.61;130289;1268;108883;-75
2022/02/13 10:51:52;;;;;;;55.20;27.20;;;;;;;3.30;67.13;100815.30;130333;1267;108729;-77
2022/02/13 10:54:58;;;;;;;64.60;30.40;;;;;;;3.37;67.23;100801.55;130384;1268;107552;-77
2022/02/13 10:58:05;;;;;;;77.30;35.20;;;;;;;3.44;67.10;100795.66;130317;1268;108769;-76
2022/02/13 11:01:12;;;;;;;53.10;25.70;;;;;;;3.51;66.70;100789.61;130439;1268;108779;-77
2022/02/13 11:04:19;;;;;;;37.50;19.20;;;;;;;3.58;66.86;100788.27;130333;1268;108817;-74
2022/02/13 11:07:26;;;;;;;52.20;27.20;;;;;;;3.64;66.53;100788.11;130349;1268;107293;-74
2022/02/13 11:10:35;;;;;;;26.20;14.40;;;;;;;3.69;66.44;100776.36;130330;1268;108884;-74
2022/02/13 11:13:42;;;;;;;24.70;13.10;;;;;;;3.74;66.46;100774.65;130293;1268;107688;-76
2022/02/13 11:16:48;;;;;;;37.20;24.60;;;;;;;3.79;66.28;100768.16;130288;1268;109019;-76
2022/02/13 11:19:54;;;;;;;23.70;13.10;;;;;;;3.85;66.46;100761.82;130444;1268;108851;-73
2022/02/13 11:23:20;;;;;;;18.90;11.80;;;;;;;3.90;66.62;100752.10;130312;1268;107822;-75
2022/02/13 11:26:41;;;;;;;19.80;11.30;;;;;;;3.97;66.57;100745.54;130855;1267;107419;-75
2022/02/13 11:29:56;;;;;;;19.40;11.70;;;;;;;4.06;66.54;100744.25;130665;1267;106621;-75
2022/02/13 11:33:01;;;;;;;19.70;12.10;;;;;;;4.11;65.58;100741.29;130348;1268;107686;-78
2022/02/13 11:36:09;;;;;;;21.10;12.70;;;;;;;4.14;65.29;100740.44;130475;1268;107677;-77
2022/02/13 11:39:36;;;;;;;22.70;12.60;;;;;;;4.16;65.79;100737.11;130357;1267;107816;-79
2022/02/13 11:42:41;;;;;;;22.20;12.50;;;;;;;4.19;65.78;100734.65;130582;1268;107637;-78
2022/02/13 11:45:48;;;;;;;24.30;12.90;;;;;;;4.23;66.01;100729.77;131026;1268;107736;-80
2022/02/13 11:49:02;;;;;;;20.70;12.60;;;;;;;4.27;65.98;100728.25;130573;1268;107700;-79
2022/02/13 11:52:07;;;;;;;18.70;12.30;;;;;;;4.31;66.10;100726.07;130703;1268;107702;-75
2022/02/13 11:55:18;;;;;;;19.10;11.40;;;;;;;4.36;65.63;100720.52;130292;1268;108924;-77
2022/02/13 11:58:35;;;;;;;20.00;12.00;;;;;;;4.39;65.66;100706.88;130444;1268;107740;-77
2022/02/13 12:01:47;;;;;;;20.40;11.90;;;;;;;4.42;65.68;100700.33;130377;1268;107815;-73
2022/02/13 12:05:16;;;;;;;18.00;11.30;;;;;;;4.47;65.50;100688.92;130290;1268;107756;-78
2022/02/13 12:08:25;;;;;;;18.80;11.30;;;;;;;4.52;65.54;100683.80;130951;1268;108868;-76
2022/02/13 12:11:36;;;;;;;19.30;11.30;;;;;;;4.57;65.76;100677.48;130415;1268;108709;-77
2022/02/13 12:14:46;;;;;;;40.20;22.00;;;;;;;4.61;64.72;100671.77;130351;1268;107746;-80
2022/02/13 12:17:51;;;;;;;25.60;14.30;;;;;;;4.65;65.01;100675.23;130378;1268;107711;-79
2022/02/13 12:21:02;;;;;;;45.60;24.70;;;;;;;4.68;64.22;100669.53;130475;1268;107685;-78
2022/02/13 12:24:10;;;;;;;19.10;11.40;;;;;;;4.70;64.29;100663.19;130458;1268;108869;-75
2022/02/13 12:27:16;;;;;;;21.10;13.00;;;;;;;4.73;64.70;100656.83;130275;1268;108655;-74
2022/02/13 12:30:26;;;;;;;19.40;11.20;;;;;;;4.79;64.79;100654.89;130478;1267;107571;-81
2022/02/13 12:33:34;;;;;;;18.70;11.60;;;;;;;4.84;64.92;100658.23;130608;1268;107922;-81
2022/02/13 12:36:40;;;;;;;17.40;10.80;;;;;;;4.90;64.24;100656.23;130548;1268;107762;-83
2022/02/13 12:39:49;;;;;;;16.70;10.30;;;;;;;4.93;64.41;100655.13;130449;1268;107819;-80
2022/02/13 12:42:57;;;;;;;16.70;11.00;;;;;;;4.96;64.34;100645.59;130405;1268;107722;-77
2022/02/13 12:46:04;;;;;;;17.80;11.10;;;;;;;5.00;64.35;100640.73;130617;1268;107882;-78
2022/02/13 12:49:11;;;;;;;16.20;9.90;;;;;;;5.03;64.07;100637.30;130311;1268;107640;-76
2022/02/13 12:52:16;;;;;;;16.00;10.60;;;;;;;5.08;64.38;100641.70;130302;1268;107737;-77
2022/02/13 12:55:23;;;;;;;16.10;10.30;;;;;;;5.14;63.89;100642.02;130270;1268;107592;-76
2022/02/13 12:58:32;;;;;;;16.70;9.70;;;;;;;5.18;63.66;100642.98;130317;1268;107797;-76
2022/02/13 13:01:37;;;;;;;17.70;10.30;;;;;;;5.22;64.01;100642.46;130244;1268;107689;-76
2022/02/13 13:04:43;;;;;;;17.50;11.50;;;;;;;5.27;64.01;100641.77;130468;1268;108989;-81
2022/02/13 13:07:49;;;;;;;18.00;11.10;;;;;;;5.30;63.44;100636.27;130430;1268;107829;-79
2022/02/13 13:10:57;;;;;;;17.10;10.20;;;;;;;5.33;64.02;100628.69;130354;1268;106968;-82
2022/02/13 13:14:14;;;;;;;17.70;10.10;;;;;;;5.34;63.36;100627.16;130633;1268;108666;-78
2022/02/13 13:17:19;;;;;;;15.90;10.20;;;;;;;5.36;63.55;100618.90;130303;1268;107510;-77
2022/02/13 13:20:28;;;;;;;15.10;9.40;;;;;;;5.38;63.57;100618.59;130526;1267;108690;-80
2022/02/13 13:23:34;;;;;;;23.20;13.20;;;;;;;5.39;63.46;100608.80;130424;1266;107800;-77
2022/02/13 13:26:40;;;;;;;25.40;13.70;;;;;;;5.41;63.42;100607.09;130375;1267;107737;-80
2022/02/13 13:29:48;;;;;;;19.60;10.40;;;;;;;5.42;63.42;100602.98;130731;1267;107789;-79
2022/02/13 13:32:57;;;;;;;16.00;9.70;;;;;;;5.41;63.21;100598.06;130602;1267;107601;-77
2022/02/13 13:36:02;;;;;;;22.00;12.60;;;;;;;5.40;63.18;100596.91;130497;1267;106663;-80
2022/02/13 13:39:26;;;;;;;15.30;9.60;;;;;;;5.40;63.14;100591.08;130463;1266;107803;-79
2022/02/13 13:42:33;;;;;;;20.50;13.10;;;;;;;5.39;63.09;100580.59;130488;1267;107728;-81
2022/02/13 13:45:41;;;;;;;16.10;9.30;;;;;;;5.37;62.99;100574.91;130438;1268;107791;-79
2022/02/13 13:48:50;;;;;;;16.80;8.90;;;;;;;5.36;63.01;100571.27;130294;1268;107763;-78
2022/02/13 13:51:55;;;;;;;29.70;16.00;;;;;;;5.36;63.35;100568.49;130401;1268;106696;-79
2022/02/13 13:55:01;;;;;;;13.40;8.40;;;;;;;5.35;63.03;100570.28;130320;1268;107908;-80